Time,TemperatureF,DewpointF,PressureIn,WindDirection,WindDirectionDegrees,WindSpeedMPH,WindSpeedGustMPH,Humidity,HourlyPrecipIn,Conditions,Clouds,dailyrainin,SoftwareType,DateUTC
2013-09-03 00:10:00,78.4,69.0,29.85,NNE,33,0.0,2.0,72,0.00,,,0.00,weatherlink.com 1.10,2013-09-03 05:10:00,
2013-09-03 00:25:00,79.6,69.0,29.85,South,180,2.0,8.0,70,0.00,,,0.00,weatherlink.com 1.10,2013-09-03 05:25:00,
2013-09-03 00:40:00,79.9,68.0,29.84,SSW,194,3.0,8.0,68,0.00,,,0.00,weatherlink.com 1.10,2013-09-03 05:40:00,
2013-09-03 00:55:00,79.3,68.0,29.84,South,187,5.0,9.0,69,0.00,,,0.00,weatherlink.com 1.10,2013-09-03 05:55:00,
2013-09-03 01:10:00,78.8,68.0,29.84,SSW,211,1.0,8.0,70,0.00,,,0.00,weatherlink.com 1.10,2013-09-03 06:10:00,
2013-09-03 01:25:00,78.2,68.0,29.84,SSW,211,0.0,4.0,71,0.00,,,0.00,weatherlink.com 1.10,2013-09-03 06:25:00,
2013-09-03 01:40:00,77.5,68.0,29.84,SSW,211,1.0,2.0,72,0.00,,,0.00,weatherlink.com 1.10,2013-09-03 06:40:00,
2013-09-03 01:55:00,76.9,68.0,29.84,SSW,211,0.0,1.0,73,0.00,,,0.00,weatherlink.com 1.10,2013-09-03 06:55:00,
2013-09-03 02:10:00,76.4,68.0,29.84,SSW,211,0.0,0.0,75,0.00,,,0.00,weatherlink.com 1.10,2013-09-03 07:10:00,
2013-09-03 02:25:00,75.8,68.0,29.84,SSW,211,0.0,1.0,76,0.00,,,0.00,weatherlink.com 1.10,2013-09-03 07:25:00,
2013-09-03 02:40:00,75.2,68.0,29.84,SSW,211,0.0,0.0,78,0.00,,,0.00,weatherlink.com 1.10,2013-09-03 07:40:00,
2013-09-03 02:55:00,74.6,68.0,29.84,SSW,211,0.0,0.0,79,0.00,,,0.00,weatherlink.com 1.10,2013-09-03 07:55:00,
2013-09-03 03:10:00,73.8,68.0,29.84,SSW,211,0.0,1.0,81,0.00,,,0.00,weatherlink.com 1.10,2013-09-03 08:10:00,
2013-09-03 03:25:00,73.5,67.0,29.84,SSW,211,0.0,0.0,81,0.00,,,0.00,weatherlink.com 1.10,2013-09-03 08:25:00,
2013-09-03 03:55:00,72.9,68.0,29.83,SSW,211,0.0,0.0,83,0.00,,,0.00,weatherlink.com 1.10,2013-09-03 08:55:00,
2013-09-03 04:11:00,72.8,67.0,29.84,SSW,211,0.0,0.0,83,0.00,,,0.00,weatherlink.com 1.10,2013-09-03 09:11:00,
2013-09-03 04:26:00,72.4,67.0,29.84,SSW,211,0.0,1.0,84,0.00,,,0.00,weatherlink.com 1.10,2013-09-03 09:26:00,
2013-09-03 04:41:00,72.2,67.0,29.84,SSW,211,0.0,0.0,84,0.00,,,0.00,weatherlink.com 1.10,2013-09-03 09:41:00,
2013-09-03 04:56:00,72.1,67.0,29.84,SSW,211,0.0,0.0,84,0.00,,,0.00,weatherlink.com 1.10,2013-09-03 09:56:00,
2013-09-03 05:11:00,71.9,67.0,29.84,SSW,211,0.0,0.0,85,0.00,,,0.00,weatherlink.com 1.10,2013-09-03 10:11:00,
2013-09-03 05:26:00,71.6,67.0,29.84,SSW,211,0.0,1.0,85,0.00,,,0.00,weatherlink.com 1.10,2013-09-03 10:26:00,
2013-09-03 05:41:00,71.2,67.0,29.84,SSW,211,0.0,2.0,86,0.00,,,0.00,weatherlink.com 1.10,2013-09-03 10:41:00,
2013-09-03 05:56:00,70.8,67.0,29.84,SSW,211,0.0,0.0,87,0.00,,,0.00,weatherlink.com 1.10,2013-09-03 10:56:00,
2013-09-03 06:11:00,70.5,67.0,29.85,SSW,211,0.0,0.0,88,0.00,,,0.00,weatherlink.com 1.10,2013-09-03 11:11:00,
2013-09-03 06:26:00,70.2,67.0,29.85,SSW,211,0.0,0.0,88,0.00,,,0.00,weatherlink.com 1.10,2013-09-03 11:26:00,
2013-09-03 06:41:00,69.8,67.0,29.86,SSW,211,0.0,0.0,89,0.00,,,0.00,weatherlink.com 1.10,2013-09-03 11:41:00,
2013-09-03 06:56:00,69.6,66.0,29.86,SSW,211,0.0,2.0,89,0.00,,,0.00,weatherlink.com 1.10,2013-09-03 11:56:00,
2013-09-03 07:11:00,69.8,67.0,29.87,SSW,211,0.0,1.0,89,0.00,,,0.00,weatherlink.com 1.10,2013-09-03 12:11:00,
2013-09-03 07:26:00,69.9,67.0,29.87,SSW,211,0.0,2.0,89,0.00,,,0.00,weatherlink.com 1.10,2013-09-03 12:26:00,
2013-09-03 07:41:00,70.0,67.0,29.87,SSW,211,0.0,1.0,89,0.00,,,0.00,weatherlink.com 1.10,2013-09-03 12:41:00,
2013-09-03 08:26:00,73.8,69.0,29.89,SSW,211,1.0,1.0,84,0.00,,,0.00,weatherlink.com 1.10,2013-09-03 13:26:00,
2013-09-03 08:56:00,77.8,70.0,29.89,SSW,211,0.0,3.0,78,0.00,,,0.00,weatherlink.com 1.10,2013-09-03 13:56:00,
2013-09-03 09:27:00,80.3,70.0,29.91,SSW,211,3.0,5.0,71,0.00,,,0.00,weatherlink.com 1.10,2013-09-03 14:27:00,
2013-09-03 09:41:00,81.3,70.0,29.91,SSW,211,2.0,3.0,69,0.00,,,0.00,weatherlink.com 1.10,2013-09-03 14:41:00,
2013-09-03 09:56:00,82.6,70.0,29.91,SSW,211,1.0,5.0,66,0.00,,,0.00,weatherlink.com 1.10,2013-09-03 14:56:00,
2013-09-03 10:11:00,83.4,70.0,29.91,SW,225,2.0,5.0,64,0.00,,,0.00,weatherlink.com 1.10,2013-09-03 15:11:00,
2013-09-03 10:26:00,84.2,70.0,29.91,WSW,243,2.0,5.0,63,0.00,,,0.00,weatherlink.com 1.10,2013-09-03 15:26:00,
2013-09-03 10:42:00,85.6,71.0,29.92,WNW,303,0.0,5.0,61,0.00,,,0.00,weatherlink.com 1.10,2013-09-03 15:42:00,
2013-09-03 10:56:00,86.6,70.0,29.92,NW,324,3.0,5.0,57,0.00,,,0.00,weatherlink.com 1.10,2013-09-03 15:56:00,
2013-09-03 11:12:00,86.5,69.0,29.91,North,5,2.0,7.0,57,0.00,,,0.00,weatherlink.com 1.10,2013-09-03 16:12:00,
2013-09-03 11:27:00,87.2,70.0,29.91,North,5,3.0,5.0,56,0.00,,,0.00,weatherlink.com 1.10,2013-09-03 16:27:00,
2013-09-03 11:42:00,89.3,70.0,29.91,North,5,0.0,3.0,53,0.00,,,0.00,weatherlink.com 1.10,2013-09-03 16:42:00,
2013-09-03 11:57:00,90.1,69.0,29.91,NNE,12,0.0,6.0,50,0.00,,,0.00,weatherlink.com 1.10,2013-09-03 16:57:00,
2013-09-03 12:42:00,91.9,66.0,29.89,ESE,112,2.0,5.0,43,0.00,,,0.00,weatherlink.com 1.10,2013-09-03 17:42:00,
2013-09-03 12:58:00,92.2,67.0,29.89,ESE,122,2.0,5.0,43,0.00,,,0.00,weatherlink.com 1.10,2013-09-03 17:58:00,
2013-09-03 13:12:00,94.0,67.0,29.88,NNE,20,5.0,9.0,41,0.00,,,0.00,weatherlink.com 1.10,2013-09-03 18:12:00,
2013-09-03 13:27:00,93.4,67.0,29.87,NE,50,5.0,7.0,42,0.00,,,0.00,weatherlink.com 1.10,2013-09-03 18:27:00,
2013-09-03 13:42:00,93.4,68.0,29.87,NE,36,0.0,5.0,43,0.00,,,0.00,weatherlink.com 1.10,2013-09-03 18:42:00,
2013-09-03 13:58:00,94.4,67.0,29.86,SSW,196,1.0,7.0,40,0.00,,,0.00,weatherlink.com 1.10,2013-09-03 18:58:00,
2013-09-03 14:13:00,95.1,66.0,29.86,South,183,1.0,6.0,38,0.00,,,0.00,weatherlink.com 1.10,2013-09-03 19:13:00,
2013-09-03 14:28:00,96.5,65.0,29.85,SE,126,4.0,7.0,36,0.00,,,0.00,weatherlink.com 1.10,2013-09-03 19:28:00,
2013-09-03 14:42:00,96.4,65.0,29.84,SSE,148,6.0,9.0,36,0.00,,,0.00,weatherlink.com 1.10,2013-09-03 19:42:00,
2013-09-03 14:57:00,96.8,66.0,29.83,South,180,1.0,7.0,36,0.00,,,0.00,weatherlink.com 1.10,2013-09-03 19:57:00,
2013-09-03 15:12:00,96.9,66.0,29.82,SSE,166,4.0,9.0,36,0.00,,,0.00,weatherlink.com 1.10,2013-09-03 20:12:00,
2013-09-03 15:27:00,96.5,65.0,29.82,SSE,161,2.0,7.0,36,0.00,,,0.00,weatherlink.com 1.10,2013-09-03 20:27:00,
2013-09-03 15:42:00,97.8,67.0,29.80,SSE,167,0.0,5.0,36,0.00,,,0.00,weatherlink.com 1.10,2013-09-03 20:42:00,
2013-09-03 15:57:00,96.8,66.0,29.80,ESE,113,1.0,7.0,36,0.00,,,0.00,weatherlink.com 1.10,2013-09-03 20:57:00,
2013-09-03 16:13:00,94.7,67.0,29.79,NNE,17,4.0,6.0,40,0.00,,,0.00,weatherlink.com 1.10,2013-09-03 21:13:00,
2013-09-03 16:28:00,95.0,67.0,29.78,North,5,1.0,8.0,40,0.00,,,0.00,weatherlink.com 1.10,2013-09-03 21:28:00,
2013-09-03 16:43:00,94.9,68.0,29.79,North,5,5.0,6.0,41,0.00,,,0.00,weatherlink.com 1.10,2013-09-03 21:43:00,
2013-09-03 16:58:00,96.3,66.0,29.78,NNE,31,1.0,7.0,37,0.00,,,0.00,weatherlink.com 1.10,2013-09-03 21:58:00,
2013-09-03 17:13:00,97.2,66.0,29.78,East,97,7.0,7.0,36,0.00,,,0.00,weatherlink.com 1.10,2013-09-03 22:13:00,
2013-09-03 17:28:00,96.7,66.0,29.78,NNE,19,4.0,7.0,37,0.00,,,0.00,weatherlink.com 1.10,2013-09-03 22:28:00,
2013-09-03 17:43:00,94.9,66.0,29.78,NNE,15,3.0,10.0,39,0.00,,,0.00,weatherlink.com 1.10,2013-09-03 22:43:00,
2013-09-03 17:58:00,92.9,66.0,29.78,NNE,28,6.0,8.0,41,0.00,,,0.00,weatherlink.com 1.10,2013-09-03 22:58:00,
2013-09-03 18:13:00,92.1,67.0,29.78,NNE,22,0.0,7.0,43,0.00,,,0.00,weatherlink.com 1.10,2013-09-03 23:13:00,
2013-09-03 18:28:00,88.7,67.0,29.79,West,265,2.0,9.0,48,0.00,,,0.00,weatherlink.com 1.10,2013-09-03 23:28:00,
2013-09-03 18:43:00,87.0,66.0,29.79,West,278,0.0,6.0,50,0.00,,,0.00,weatherlink.com 1.10,2013-09-03 23:43:00,
2013-09-03 18:58:00,86.4,66.0,29.79,West,277,3.0,7.0,51,0.00,,,0.00,weatherlink.com 1.10,2013-09-03 23:58:00,
2013-09-03 19:13:00,86.2,67.0,29.80,West,263,3.0,4.0,53,0.00,,,0.00,weatherlink.com 1.10,2013-09-04 00:13:00,
2013-09-03 19:28:00,86.0,66.0,29.80,SSW,213,2.0,4.0,52,0.00,,,0.00,weatherlink.com 1.10,2013-09-04 00:28:00,
2013-09-03 19:43:00,86.2,66.0,29.80,SSW,213,0.0,1.0,52,0.00,,,0.00,weatherlink.com 1.10,2013-09-04 00:43:00,
2013-09-03 19:58:00,85.9,66.0,29.80,SSW,213,0.0,2.0,52,0.00,,,0.00,weatherlink.com 1.10,2013-09-04 00:58:00,
2013-09-03 20:13:00,85.4,67.0,29.80,SSW,213,0.0,0.0,54,0.00,,,0.00,weatherlink.com 1.10,2013-09-04 01:13:00,
2013-09-03 20:28:00,84.2,67.0,29.80,SSW,213,0.0,0.0,57,0.00,,,0.00,weatherlink.com 1.10,2013-09-04 01:28:00,
2013-09-03 20:43:00,83.0,67.0,29.81,SSW,213,0.0,1.0,59,0.00,,,0.00,weatherlink.com 1.10,2013-09-04 01:43:00,
2013-09-03 20:58:00,82.3,68.0,29.82,SSW,213,1.0,2.0,62,0.00,,,0.00,weatherlink.com 1.10,2013-09-04 01:58:00,
2013-09-03 21:13:00,81.7,68.0,29.81,SSW,213,0.0,2.0,64,0.00,,,0.00,weatherlink.com 1.10,2013-09-04 02:13:00,
2013-09-03 21:28:00,81.1,69.0,29.81,SSW,213,0.0,0.0,66,0.00,,,0.00,weatherlink.com 1.10,2013-09-04 02:28:00,
2013-09-03 21:43:00,80.6,69.0,29.82,SSW,213,0.0,0.0,68,0.00,,,0.00,weatherlink.com 1.10,2013-09-04 02:43:00,
2013-09-03 21:58:00,80.0,69.0,29.82,SSW,213,0.0,0.0,69,0.00,,,0.00,weatherlink.com 1.10,2013-09-04 02:58:00,
2013-09-03 22:13:00,79.6,68.0,29.82,SSW,213,0.0,0.0,68,0.00,,,0.00,weatherlink.com 1.10,2013-09-04 03:13:00,
2013-09-03 22:28:00,79.2,69.0,29.83,SSW,213,0.0,1.0,70,0.00,,,0.00,weatherlink.com 1.10,2013-09-04 03:28:00,
2013-09-03 22:43:00,79.7,68.0,29.83,SSW,213,1.0,3.0,67,0.00,,,0.00,weatherlink.com 1.10,2013-09-04 03:43:00,
2013-09-03 22:58:00,79.9,68.0,29.83,SSW,213,0.0,1.0,67,0.00,,,0.00,weatherlink.com 1.10,2013-09-04 03:58:00,
2013-09-03 23:13:00,79.6,68.0,29.82,SSW,213,0.0,0.0,68,0.00,,,0.00,weatherlink.com 1.10,2013-09-04 04:13:00,
2013-09-03 23:28:00,79.3,68.0,29.83,SSW,213,0.0,1.0,68,0.00,,,0.00,weatherlink.com 1.10,2013-09-04 04:28:00,
2013-09-03 23:43:00,78.9,68.0,29.82,SSW,213,0.0,0.0,69,0.00,,,0.00,weatherlink.com 1.10,2013-09-04 04:43:00,
2013-09-03 23:58:00,78.8,68.0,29.83,SSW,213,0.0,1.0,69,0.00,,,0.00,weatherlink.com 1.10,2013-09-04 04:58:00,